createdAt,value
2022-12-31T00:02:11.467Z,13.07
2022-12-31T00:05:14.772Z,14.43
2022-12-31T00:08:17.288Z,14.33
2022-12-31T00:11:22.082Z,13.85
2022-12-31T00:14:24.666Z,14.00
2022-12-31T00:17:27.213Z,13.80
2022-12-31T00:20:30.033Z,13.40
2022-12-31T00:23:32.564Z,14.47
2022-12-31T00:26:35.175Z,13.35
2022-12-31T00:29:37.597Z,14.70
2022-12-31T00:32:41.041Z,13.93
2022-12-31T00:35:43.400Z,13.20
2022-12-31T00:38:47.913Z,14.52
2022-12-31T00:41:50.392Z,14.70
2022-12-31T00:44:52.871Z,13.90
2022-12-31T00:47:55.235Z,14.85
2022-12-31T00:50:58.243Z,14.90
2022-12-31T00:54:01.100Z,15.80
2022-12-31T00:57:03.702Z,14.43
2022-12-31T01:00:07.675Z,15.23
2022-12-31T01:03:10.813Z,14.73
2022-12-31T01:06:13.811Z,15.53
2022-12-31T01:09:17.200Z,14.27
2022-12-31T01:12:19.610Z,14.82
2022-12-31T01:15:22.055Z,15.20
2022-12-31T01:18:24.564Z,14.50
2022-12-31T01:21:27.661Z,15.40
2022-12-31T01:24:30.208Z,15.23
2022-12-31T01:27:32.631Z,14.35
2022-12-31T01:30:39.033Z,15.32
2022-12-31T01:33:42.546Z,14.63
2022-12-31T01:36:45.084Z,14.65
2022-12-31T01:39:47.709Z,15.73
2022-12-31T01:42:57.937Z,15.88
2022-12-31T01:46:00.727Z,15.27
2022-12-31T01:49:11.207Z,16.40
2022-12-31T01:52:17.033Z,15.57
2022-12-31T01:55:33.429Z,15.65
2022-12-31T01:58:42.682Z,15.90
2022-12-31T02:01:48.256Z,15.47
2022-12-31T02:04:54.567Z,16.20
2022-12-31T02:07:57.675Z,16.90
2022-12-31T02:11:00.103Z,15.73
2022-12-31T02:14:08.013Z,14.93
2022-12-31T02:17:32.583Z,14.53
2022-12-31T02:20:59.980Z,14.77
2022-12-31T02:24:16.681Z,13.93
2022-12-31T02:27:45.157Z,14.88
2022-12-31T02:30:51.721Z,14.57
2022-12-31T02:34:06.122Z,15.70
2022-12-31T02:37:12.838Z,15.88
2022-12-31T02:40:19.917Z,14.85
2022-12-31T02:43:22.549Z,14.77
2022-12-31T02:46:36.647Z,15.60
2022-12-31T02:50:00.222Z,15.03
2022-12-31T02:53:08.727Z,15.57
2022-12-31T02:56:13.919Z,14.48
2022-12-31T02:59:44.401Z,14.70
2022-12-31T03:02:49.069Z,14.97
2022-12-31T03:05:51.892Z,15.68
2022-12-31T03:09:12.810Z,15.35
2022-12-31T03:12:34.329Z,15.05
2022-12-31T03:15:37.073Z,15.30
2022-12-31T03:18:57.986Z,15.13
2022-12-31T03:22:19.558Z,15.60
2022-12-31T03:25:38.963Z,14.23
2022-12-31T03:28:47.854Z,14.90
2022-12-31T03:31:50.687Z,13.93
2022-12-31T03:34:53.207Z,14.75
2022-12-31T03:37:56.693Z,14.68
2022-12-31T03:40:59.314Z,14.23
2022-12-31T03:44:01.721Z,15.10
2022-12-31T03:47:04.218Z,14.23
2022-12-31T03:50:08.910Z,14.13
2022-12-31T03:53:11.471Z,13.95
2022-12-31T03:56:13.891Z,14.18
2022-12-31T03:59:16.537Z,13.33
2022-12-31T04:02:22.040Z,13.87
2022-12-31T04:05:29.233Z,14.45
2022-12-31T04:08:31.719Z,14.75
2022-12-31T04:11:34.249Z,17.42
2022-12-31T04:14:36.752Z,19.17
2022-12-31T04:17:39.272Z,17.23
2022-12-31T04:20:41.901Z,16.90
2022-12-31T04:23:44.501Z,15.18
2022-12-31T04:26:46.975Z,14.50
2022-12-31T04:29:49.875Z,14.57
2022-12-31T04:32:52.777Z,15.57
2022-12-31T04:36:01.606Z,15.43
2022-12-31T04:39:05.166Z,14.32
2022-12-31T04:42:07.748Z,14.93
2022-12-31T04:45:10.647Z,14.67
2022-12-31T04:48:13.157Z,13.97
2022-12-31T04:51:15.959Z,14.85
2022-12-31T04:54:18.443Z,14.93
2022-12-31T04:57:20.957Z,15.35
2022-12-31T05:00:23.489Z,14.90
2022-12-31T05:03:27.135Z,14.17
2022-12-31T05:06:29.983Z,13.10
2022-12-31T05:09:32.617Z,13.52
2022-12-31T05:12:35.057Z,13.77
2022-12-31T05:15:37.681Z,13.87
2022-12-31T05:18:40.280Z,14.40
2022-12-31T05:21:42.914Z,14.00
2022-12-31T05:24:45.347Z,13.52
2022-12-31T05:27:47.863Z,13.38
2022-12-31T05:30:51.518Z,15.37
2022-12-31T05:33:54.042Z,13.43
2022-12-31T05:36:56.446Z,13.88
2022-12-31T05:39:59.589Z,14.55
2022-12-31T05:43:02.174Z,13.40
2022-12-31T05:46:04.972Z,14.47
2022-12-31T05:49:07.708Z,14.17
2022-12-31T05:52:10.740Z,14.57
2022-12-31T05:55:13.706Z,14.95
2022-12-31T05:58:16.951Z,13.93
2022-12-31T06:01:19.539Z,15.35
2022-12-31T06:04:22.204Z,15.60
2022-12-31T06:07:24.612Z,14.60
2022-12-31T06:10:27.078Z,14.98
2022-12-31T06:13:29.985Z,13.75
2022-12-31T06:16:32.442Z,14.30
2022-12-31T06:19:36.044Z,14.48
2022-12-31T06:22:38.451Z,14.50
2022-12-31T06:25:42.084Z,14.02
2022-12-31T06:28:44.833Z,13.20
2022-12-31T06:31:47.277Z,14.02
2022-12-31T06:34:49.729Z,14.25
2022-12-31T06:37:52.455Z,15.77
2022-12-31T06:40:55.135Z,15.50
2022-12-31T06:43:57.619Z,16.85
2022-12-31T06:47:01.781Z,17.13
2022-12-31T06:50:05.344Z,17.63
2022-12-31T06:53:08.117Z,15.67
2022-12-31T06:56:34.425Z,16.92
2022-12-31T06:59:38.262Z,16.23
2022-12-31T07:03:19.969Z,15.52
2022-12-31T07:06:44.260Z,15.63
2022-12-31T07:10:15.248Z,13.20
2022-12-31T07:13:41.865Z,14.82
2022-12-31T07:16:57.579Z,13.85
2022-12-31T07:20:00.238Z,13.98
2022-12-31T07:23:03.002Z,14.20
2022-12-31T07:26:38.030Z,15.40
2022-12-31T07:30:01.977Z,14.60
2022-12-31T07:33:13.257Z,14.50
2022-12-31T07:36:53.312Z,16.00
2022-12-31T07:40:17.103Z,15.77
2022-12-31T07:43:35.402Z,17.80
2022-12-31T07:46:56.862Z,16.27
2022-12-31T07:49:59.586Z,19.43
2022-12-31T07:53:02.210Z,16.97
2022-12-31T07:56:09.812Z,17.75
2022-12-31T07:59:34.038Z,17.75
2022-12-31T08:02:55.132Z,17.00
2022-12-31T08:06:33.548Z,16.80
2022-12-31T08:09:41.766Z,16.23
2022-12-31T08:12:46.009Z,16.40
2022-12-31T08:15:48.853Z,16.35
2022-12-31T08:18:51.532Z,16.63
2022-12-31T08:22:22.081Z,15.60
2022-12-31T08:25:35.209Z,15.73
2022-12-31T08:29:21.930Z,16.38
2022-12-31T08:32:30.652Z,16.50
2022-12-31T08:36:10.534Z,16.52
2022-12-31T08:39:25.140Z,18.53
2022-12-31T08:42:37.051Z,16.03
2022-12-31T08:45:46.503Z,16.60
2022-12-31T08:48:49.318Z,17.27
2022-12-31T08:51:52.163Z,16.92
2022-12-31T08:54:54.931Z,17.20
2022-12-31T08:58:26.327Z,18.63
2022-12-31T09:01:39.917Z,17.17
2022-12-31T09:05:24.199Z,16.58
2022-12-31T09:08:41.892Z,16.08
2022-12-31T09:12:07.730Z,16.47
2022-12-31T09:15:15.829Z,15.97
2022-12-31T09:18:18.959Z,17.05
2022-12-31T09:21:21.723Z,15.48
2022-12-31T09:24:24.503Z,15.70
2022-12-31T09:27:56.131Z,15.67
2022-12-31T09:31:12.918Z,15.40
2022-12-31T09:34:26.403Z,16.77
2022-12-31T09:37:49.889Z,15.85
2022-12-31T09:41:15.958Z,17.33
2022-12-31T09:44:42.843Z,16.77
2022-12-31T09:48:13.115Z,17.20
2022-12-31T09:51:25.532Z,18.13
2022-12-31T09:54:39.191Z,17.33
2022-12-31T09:57:45.407Z,17.13
2022-12-31T10:00:58.745Z,16.73
2022-12-31T10:04:19.088Z,17.80
2022-12-31T10:07:48.786Z,16.95
2022-12-31T10:10:59.533Z,18.08
2022-12-31T10:14:23.862Z,18.88
2022-12-31T10:17:48.979Z,17.97
2022-12-31T10:21:13.281Z,17.87
2022-12-31T10:24:36.693Z,18.48
2022-12-31T10:28:05.720Z,19.13
2022-12-31T10:31:15.419Z,21.50
2022-12-31T10:34:36.879Z,20.33
2022-12-31T10:38:17.618Z,19.80
2022-12-31T10:41:33.886Z,21.40
2022-12-31T10:44:54.784Z,20.27
2022-12-31T10:48:10.689Z,20.45
2022-12-31T10:51:19.198Z,20.60
2022-12-31T10:54:48.683Z,21.50
2022-12-31T10:58:06.503Z,21.48
2022-12-31T11:01:30.495Z,20.45
2022-12-31T11:05:11.386Z,22.27
2022-12-31T11:09:07.092Z,20.80
2022-12-31T11:12:21.501Z,20.63
2022-12-31T11:15:55.185Z,20.20
2022-12-31T11:19:19.156Z,20.88
2022-12-31T11:22:42.564Z,20.38
2022-12-31T11:26:08.624Z,19.97
2022-12-31T11:30:01.328Z,20.20
2022-12-31T11:33:33.342Z,21.00
2022-12-31T11:36:44.476Z,19.73
2022-12-31T11:39:56.118Z,22.25
2022-12-31T11:43:11.100Z,21.37
2022-12-31T11:46:16.760Z,21.17
2022-12-31T11:49:26.265Z,22.10
2022-12-31T11:52:47.539Z,22.83
2022-12-31T11:56:06.617Z,22.08
2022-12-31T11:59:18.993Z,21.83
2022-12-31T12:02:29.028Z,21.23
2022-12-31T12:05:33.857Z,22.13
2022-12-31T12:08:36.664Z,20.70
2022-12-31T12:11:40.681Z,22.40
2022-12-31T12:14:45.417Z,22.23
2022-12-31T12:17:54.159Z,21.83
2022-12-31T12:21:08.731Z,21.42
2022-12-31T12:24:22.492Z,23.00
2022-12-31T12:27:30.064Z,22.23
2022-12-31T12:30:38.612Z,20.87
2022-12-31T12:33:43.835Z,22.07
2022-12-31T12:36:48.364Z,21.25
2022-12-31T12:40:02.179Z,21.90
2022-12-31T12:43:04.754Z,21.55
2022-12-31T12:46:17.308Z,20.97
2022-12-31T12:49:24.681Z,21.50
2022-12-31T12:52:41.707Z,20.88
2022-12-31T12:56:08.237Z,20.92
2022-12-31T12:59:31.991Z,20.85
2022-12-31T13:02:43.314Z,20.87
2022-12-31T13:06:07.271Z,20.53
2022-12-31T13:09:27.859Z,22.13
2022-12-31T13:13:22.091Z,21.10
2022-12-31T13:16:19.159Z,20.98
2022-12-31T13:19:31.019Z,21.90
2022-12-31T13:22:59.072Z,22.00
2022-12-31T13:26:21.773Z,22.38
2022-12-31T13:29:31.388Z,24.45
2022-12-31T13:32:59.633Z,22.60
2022-12-31T13:36:07.497Z,23.93
2022-12-31T13:39:19.205Z,24.60
2022-12-31T13:42:29.715Z,22.65
2022-12-31T13:45:41.750Z,24.55
2022-12-31T13:48:53.481Z,23.73
2022-12-31T13:52:12.607Z,24.53
2022-12-31T13:55:23.031Z,24.23
2022-12-31T13:58:31.675Z,24.08
2022-12-31T14:01:41.056Z,24.80
2022-12-31T14:04:50.686Z,24.17
2022-12-31T14:08:01.930Z,22.30
2022-12-31T14:11:18.076Z,22.40
2022-12-31T14:14:28.453Z,23.42
2022-12-31T14:17:39.165Z,22.98
2022-12-31T14:20:48.089Z,23.67
2022-12-31T14:24:21.748Z,25.07
2022-12-31T14:27:29.796Z,24.40
2022-12-31T14:30:40.401Z,23.58
2022-12-31T14:34:06.673Z,23.23
2022-12-31T14:37:24.192Z,21.40
2022-12-31T14:40:31.034Z,21.00
2022-12-31T14:44:03.502Z,22.70
2022-12-31T14:47:08.697Z,21.52
2022-12-31T14:50:11.194Z,21.88
2022-12-31T14:53:25.198Z,23.17
2022-12-31T14:56:44.739Z,22.47
2022-12-31T15:00:01.376Z,23.13
2022-12-31T15:03:14.679Z,22.73
2022-12-31T15:06:23.363Z,21.92
2022-12-31T15:09:58.230Z,22.63
2022-12-31T15:13:03.469Z,21.87
2022-12-31T15:16:35.360Z,22.13
2022-12-31T15:19:58.407Z,22.48
2022-12-31T15:23:01.045Z,22.33
2022-12-31T15:26:05.491Z,30.15
2022-12-31T15:29:24.353Z,30.27
2022-12-31T15:32:36.995Z,25.77
2022-12-31T15:35:55.135Z,27.02
2022-12-31T15:39:05.363Z,29.42
2022-12-31T15:42:49.853Z,26.63
2022-12-31T15:45:55.803Z,27.77
2022-12-31T15:49:06.829Z,29.97
2022-12-31T15:52:20.685Z,28.08
2022-12-31T15:55:29.208Z,28.50
2022-12-31T15:58:35.923Z,28.77
2022-12-31T16:01:41.469Z,29.13
2022-12-31T16:04:44.534Z,28.33
2022-12-31T16:07:47.423Z,28.75
2022-12-31T16:10:50.325Z,28.33
2022-12-31T16:13:56.037Z,28.83
2022-12-31T16:17:00.871Z,30.50
2022-12-31T16:20:31.406Z,31.43
2022-12-31T16:23:37.477Z,30.52
2022-12-31T16:26:48.235Z,38.13
2022-12-31T16:30:00.898Z,39.78
2022-12-31T16:33:07.063Z,46.70
2022-12-31T16:36:23.641Z,45.70
2022-12-31T16:39:32.348Z,41.70
2022-12-31T16:42:44.149Z,36.55
2022-12-31T16:45:47.108Z,35.72
2022-12-31T16:48:59.190Z,32.27
2022-12-31T16:52:22.940Z,32.07
2022-12-31T16:55:28.798Z,33.10
2022-12-31T16:58:34.650Z,34.38
2022-12-31T17:01:38.236Z,35.22
2022-12-31T17:04:46.923Z,34.37
2022-12-31T17:07:52.973Z,34.53
2022-12-31T17:10:56.527Z,34.78
2022-12-31T17:14:13.304Z,34.20
2022-12-31T17:17:27.781Z,32.97
2022-12-31T17:20:33.387Z,33.43
2022-12-31T17:23:39.646Z,33.20
2022-12-31T17:26:42.617Z,35.38
2022-12-31T17:29:45.215Z,33.67
2022-12-31T17:32:50.086Z,41.42
2022-12-31T17:36:17.291Z,43.37
2022-12-31T17:39:22.922Z,38.23
2022-12-31T17:42:37.593Z,37.63
2022-12-31T17:45:43.222Z,36.00
2022-12-31T17:48:51.937Z,37.03
2022-12-31T17:51:54.378Z,39.13
2022-12-31T17:54:57.178Z,40.00
2022-12-31T17:58:04.995Z,39.55
2022-12-31T18:01:08.980Z,38.95
2022-12-31T18:04:14.333Z,36.67
2022-12-31T18:07:16.795Z,38.07
2022-12-31T18:10:24.268Z,37.90
2022-12-31T18:13:27.748Z,36.40
2022-12-31T18:16:30.629Z,42.75
2022-12-31T18:22:55.981Z,42.47
2022-12-31T18:25:58.373Z,46.40
2022-12-31T18:29:12.192Z,62.97
2022-12-31T18:32:26.060Z,58.92
2022-12-31T18:38:50.950Z,57.10
2022-12-31T18:41:54.152Z,57.33
2022-12-31T18:44:56.643Z,54.47
2022-12-31T18:47:59.108Z,49.08
2022-12-31T18:51:01.599Z,45.47
2022-12-31T18:54:04.995Z,44.90
2022-12-31T18:57:07.543Z,44.92
2022-12-31T19:00:11.133Z,45.30
2022-12-31T19:03:21.723Z,46.00
2022-12-31T19:06:25.783Z,47.83
2022-12-31T19:09:45.247Z,46.77
2022-12-31T19:12:48.960Z,49.33
2022-12-31T19:15:53.356Z,50.42
2022-12-31T19:18:55.851Z,49.67
2022-12-31T19:21:58.304Z,50.33
2022-12-31T19:25:00.705Z,50.67
2022-12-31T19:28:06.256Z,52.40
2022-12-31T19:31:08.722Z,58.13
2022-12-31T19:34:11.550Z,56.25
2022-12-31T19:37:15.789Z,54.47
2022-12-31T19:40:22.119Z,57.20
2022-12-31T19:43:24.775Z,57.22
2022-12-31T19:46:28.478Z,55.80
2022-12-31T19:49:31.124Z,57.28
2022-12-31T19:52:33.561Z,56.37
2022-12-31T19:55:35.939Z,53.93
2022-12-31T19:58:38.604Z,53.58
2022-12-31T20:01:41.354Z,54.50
2022-12-31T20:04:43.946Z,54.88
2022-12-31T20:07:47.026Z,55.13
2022-12-31T20:10:50.557Z,61.97
2022-12-31T20:13:54.121Z,60.58
2022-12-31T20:16:56.755Z,61.15
2022-12-31T20:19:59.364Z,60.40
2022-12-31T20:23:02.712Z,57.17
2022-12-31T20:26:05.391Z,56.90
2022-12-31T20:29:07.887Z,56.70
2022-12-31T20:32:10.469Z,57.70
2022-12-31T20:35:12.877Z,56.10
2022-12-31T20:38:15.446Z,52.50
2022-12-31T20:41:21.328Z,52.13
2022-12-31T20:44:23.765Z,54.42
2022-12-31T20:47:26.185Z,53.58
2022-12-31T20:50:28.675Z,56.53
2022-12-31T20:53:31.102Z,55.13
2022-12-31T20:56:36.034Z,55.10
2022-12-31T20:59:38.550Z,55.20
2022-12-31T21:02:43.036Z,54.70
2022-12-31T21:05:54.559Z,54.95
2022-12-31T21:08:59.384Z,51.17
2022-12-31T21:12:20.570Z,54.13
2022-12-31T21:15:23.063Z,49.85
2022-12-31T21:18:25.917Z,49.40
2022-12-31T21:21:28.658Z,53.10
2022-12-31T21:24:31.163Z,49.30
2022-12-31T21:27:35.356Z,48.72
2022-12-31T21:30:39.954Z,46.58
2022-12-31T21:33:47.143Z,46.77
2022-12-31T21:36:49.595Z,46.57
2022-12-31T21:39:52.057Z,47.72
2022-12-31T21:42:54.869Z,43.83
2022-12-31T21:46:05.580Z,42.78
2022-12-31T21:49:08.111Z,43.40
2022-12-31T21:52:26.816Z,39.45
2022-12-31T21:55:47.673Z,41.42
2022-12-31T21:59:15.331Z,39.83
2022-12-31T22:02:36.172Z,39.73
2022-12-31T22:05:46.917Z,40.65
2022-12-31T22:08:53.173Z,41.67
2022-12-31T22:11:55.762Z,40.47
2022-12-31T22:15:14.538Z,40.17
2022-12-31T22:18:18.812Z,40.35
2022-12-31T22:21:23.973Z,40.30
2022-12-31T22:24:26.472Z,40.30
2022-12-31T22:27:30.052Z,41.07
2022-12-31T22:30:34.490Z,38.83
2022-12-31T22:33:37.156Z,40.15
2022-12-31T22:36:39.715Z,37.55
2022-12-31T22:39:44.085Z,43.03
2022-12-31T22:42:47.391Z,44.37
2022-12-31T22:45:49.800Z,41.67
2022-12-31T22:48:53.740Z,39.90
2022-12-31T22:52:00.737Z,44.22
2022-12-31T22:55:05.848Z,44.63
2022-12-31T22:58:08.277Z,48.45
2022-12-31T23:01:22.037Z,53.25
2022-12-31T23:04:24.479Z,50.67
2022-12-31T23:07:27.028Z,52.50
2022-12-31T23:10:48.445Z,51.70
2022-12-31T23:14:09.820Z,56.28
2022-12-31T23:17:37.160Z,61.50
2022-12-31T23:20:58.920Z,75.72
2022-12-31T23:24:04.336Z,111.17
2022-12-31T23:27:07.637Z,88.57
2022-12-31T23:30:11.600Z,69.18
2022-12-31T23:33:17.484Z,50.83
2022-12-31T23:36:19.999Z,48.33
2022-12-31T23:39:22.668Z,44.08
2022-12-31T23:42:25.196Z,42.88
2022-12-31T23:45:32.872Z,43.38
2022-12-31T23:48:35.959Z,43.33
2022-12-31T23:51:40.242Z,41.15
2022-12-31T23:54:42.729Z,48.13
2022-12-31T23:57:45.246Z,46.10
